createdAt,value
2023-01-29T00:00:42.859Z,87.79
2023-01-29T00:01:42.917Z,87.58
2023-01-29T00:02:42.915Z,88.21
2023-01-29T00:03:42.879Z,88.70
2023-01-29T00:04:42.815Z,88.80
2023-01-29T00:05:42.817Z,88.38
2023-01-29T00:06:42.797Z,87.75
2023-01-29T00:07:42.811Z,87.54
2023-01-29T00:08:42.779Z,87.02
2023-01-29T00:09:42.771Z,87.02
2023-01-29T00:10:42.750Z,87.12
2023-01-29T00:11:42.754Z,86.91
2023-01-29T00:12:42.748Z,86.80
2023-01-29T00:13:42.738Z,87.02
2023-01-29T00:14:42.708Z,87.12
2023-01-29T00:15:42.718Z,87.02
2023-01-29T00:16:42.818Z,86.80
2023-01-29T00:17:42.692Z,86.60
2023-01-29T00:18:42.682Z,86.80
2023-01-29T00:19:42.685Z,86.80
2023-01-29T00:20:42.667Z,87.12
2023-01-29T00:21:42.654Z,86.60
2023-01-29T00:22:42.644Z,86.60
2023-01-29T00:23:42.668Z,86.18
2023-01-29T00:24:42.612Z,85.93
2023-01-29T00:25:42.599Z,86.55
2023-01-29T00:26:42.598Z,86.49
2023-01-29T00:27:42.603Z,86.87
2023-01-29T00:28:42.591Z,86.98
2023-01-29T00:29:42.583Z,86.66
2023-01-29T00:30:42.559Z,86.55
2023-01-29T00:31:42.627Z,86.66
2023-01-29T00:32:42.529Z,86.87
2023-01-29T00:33:42.538Z,87.08
2023-01-29T00:34:42.506Z,86.66
2023-01-29T00:35:42.533Z,86.77
2023-01-29T00:36:42.501Z,86.77
2023-01-29T00:37:42.499Z,86.87
2023-01-29T00:38:42.473Z,87.29
2023-01-29T00:39:48.241Z,86.66
2023-01-29T00:40:42.464Z,86.77
2023-01-29T00:41:42.484Z,86.35
2023-01-29T00:42:42.452Z,86.45
2023-01-29T00:43:42.429Z,86.13
2023-01-29T00:44:42.461Z,86.66
2023-01-29T00:45:42.427Z,86.87
2023-01-29T00:46:42.501Z,86.55
2023-01-29T00:47:42.394Z,86.98
2023-01-29T00:48:42.378Z,87.29
2023-01-29T00:49:42.362Z,87.29
2023-01-29T00:50:42.357Z,86.87
2023-01-29T00:51:42.389Z,86.35
2023-01-29T00:52:42.339Z,86.66
2023-01-29T00:53:42.324Z,86.98
2023-01-29T00:54:42.319Z,86.98
2023-01-29T00:55:42.327Z,86.45
2023-01-29T00:56:42.297Z,86.35
2023-01-29T00:57:42.290Z,86.45
2023-01-29T00:58:42.271Z,86.24
2023-01-29T00:59:42.270Z,86.13
2023-01-29T01:00:42.339Z,86.35
2023-01-29T01:01:42.281Z,86.35
2023-01-29T01:02:42.257Z,86.03
2023-01-29T01:03:42.254Z,86.24
2023-01-29T01:04:42.219Z,86.13
2023-01-29T01:05:42.210Z,85.93
2023-01-29T01:06:42.210Z,86.13
2023-01-29T01:07:42.200Z,85.82
2023-01-29T01:08:42.161Z,85.40
2023-01-29T01:09:42.254Z,86.03
2023-01-29T01:10:42.148Z,86.24
2023-01-29T01:11:42.136Z,86.13
2023-01-29T01:12:42.123Z,85.40
2023-01-29T01:13:42.186Z,85.40
2023-01-29T01:14:42.097Z,85.50
2023-01-29T01:15:42.096Z,85.30
2023-01-29T01:16:42.238Z,85.08
2023-01-29T01:17:42.100Z,84.77
2023-01-29T01:18:42.080Z,84.77
2023-01-29T01:19:42.055Z,85.19
2023-01-29T01:20:42.049Z,85.40
2023-01-29T01:21:42.032Z,85.30
2023-01-29T01:22:42.014Z,85.50
2023-01-29T01:23:42.036Z,85.19
2023-01-29T01:25:54.155Z,85.50
2023-01-29T01:26:54.412Z,85.30
2023-01-29T01:27:54.374Z,85.30
2023-01-29T01:28:54.380Z,85.61
2023-01-29T01:29:54.460Z,86.13
2023-01-29T01:30:54.488Z,86.35
2023-01-29T01:31:54.371Z,86.24
2023-01-29T01:32:54.423Z,85.72
2023-01-29T01:33:54.330Z,85.50
2023-01-29T01:34:54.297Z,85.72
2023-01-29T01:35:54.257Z,85.40
2023-01-29T01:36:54.270Z,85.72
2023-01-29T01:37:54.316Z,85.19
2023-01-29T01:38:54.231Z,85.19
2023-01-29T01:39:54.213Z,85.50
2023-01-29T01:40:54.226Z,85.61
2023-01-29T01:41:54.222Z,85.19
2023-01-29T01:42:54.232Z,84.88
2023-01-29T01:43:54.196Z,84.67
2023-01-29T01:44:54.201Z,84.88
2023-01-29T01:45:54.316Z,85.08
2023-01-29T01:46:54.160Z,85.40
2023-01-29T01:47:54.212Z,85.19
2023-01-29T01:48:54.150Z,84.88
2023-01-29T01:49:54.127Z,84.77
2023-01-29T01:50:54.162Z,85.19
2023-01-29T01:51:54.091Z,85.40
2023-01-29T01:52:54.147Z,85.40
2023-01-29T01:53:54.081Z,85.82
2023-01-29T01:54:54.088Z,85.93
2023-01-29T01:55:54.074Z,86.13
2023-01-29T01:56:54.233Z,86.13
2023-01-29T01:57:54.050Z,85.72
2023-01-29T01:58:54.067Z,85.93
2023-01-29T01:59:54.025Z,86.45
2023-01-29T02:00:54.052Z,86.45
2023-01-29T02:01:54.073Z,86.35
2023-01-29T02:02:53.985Z,86.35
2023-01-29T02:03:54.025Z,86.35
2023-01-29T02:04:53.982Z,86.55
2023-01-29T02:05:53.975Z,86.03
2023-01-29T02:06:53.999Z,86.66
2023-01-29T02:07:54.050Z,86.55
2023-01-29T02:08:54.051Z,86.55
2023-01-29T02:09:53.900Z,86.55
2023-01-29T02:10:53.927Z,86.66
2023-01-29T02:11:53.912Z,86.24
2023-01-29T02:12:53.936Z,86.55
2023-01-29T02:13:54.193Z,86.55
2023-01-29T02:14:53.861Z,86.45
2023-01-29T02:15:53.832Z,86.45
2023-01-29T02:16:54.172Z,86.66
2023-01-29T02:17:53.901Z,86.87
2023-01-29T02:18:53.877Z,87.19
2023-01-29T02:19:53.834Z,87.29
2023-01-29T02:20:53.835Z,87.71
2023-01-29T02:21:53.797Z,87.92
2023-01-29T02:22:53.857Z,87.29
2023-01-29T02:23:54.101Z,86.77
2023-01-29T02:24:53.777Z,86.35
2023-01-29T02:25:53.768Z,85.93
2023-01-29T02:26:54.252Z,85.93
2023-01-29T02:27:53.736Z,85.93
2023-01-29T02:28:53.754Z,86.24
2023-01-29T02:29:53.717Z,85.93
2023-01-29T02:30:53.932Z,85.72
2023-01-29T02:31:53.962Z,85.72
2023-01-29T02:32:53.685Z,86.24
2023-01-29T02:33:53.781Z,86.77
2023-01-29T02:34:53.977Z,86.45
2023-01-29T02:35:54.215Z,86.13
2023-01-29T02:36:53.706Z,85.50
2023-01-29T02:37:53.623Z,85.40
2023-01-29T02:38:53.604Z,84.88
2023-01-29T02:39:53.707Z,85.08
2023-01-29T02:40:53.600Z,85.40
2023-01-29T02:41:53.600Z,85.72
2023-01-29T02:42:53.651Z,85.61
2023-01-29T02:43:53.614Z,85.61
2023-01-29T02:44:53.539Z,85.30
2023-01-29T02:45:53.652Z,85.50
2023-01-29T02:46:53.543Z,84.88
2023-01-29T02:47:53.513Z,85.19
2023-01-29T02:48:53.533Z,85.30
2023-01-29T02:49:53.545Z,85.82
2023-01-29T02:50:53.584Z,86.03
2023-01-29T02:51:53.475Z,86.24
2023-01-29T02:52:53.494Z,86.24
2023-01-29T02:53:53.456Z,85.50
2023-01-29T02:54:53.495Z,85.19
2023-01-29T02:55:53.494Z,85.50
2023-01-29T02:56:53.449Z,85.40
2023-01-29T02:57:53.419Z,85.40
2023-01-29T02:58:53.474Z,85.36
2023-01-29T02:59:53.404Z,85.15
2023-01-29T03:00:53.539Z,85.15
2023-01-29T03:01:53.352Z,85.15
2023-01-29T03:02:53.374Z,85.25
2023-01-29T03:03:53.365Z,84.94
2023-01-29T03:04:53.463Z,84.94
2023-01-29T03:05:53.361Z,85.05
2023-01-29T03:06:53.426Z,85.68
2023-01-29T03:07:53.414Z,85.99
2023-01-29T03:08:53.393Z,85.36
2023-01-29T03:09:53.325Z,85.89
2023-01-29T03:10:53.732Z,86.10
2023-01-29T03:12:02.410Z,86.20
2023-01-29T03:12:53.286Z,85.99
2023-01-29T03:13:53.233Z,85.99
2023-01-29T03:14:53.232Z,86.10
2023-01-29T03:15:53.250Z,86.20
2023-01-29T03:16:53.266Z,86.10
2023-01-29T03:17:53.371Z,86.30
2023-01-29T03:18:53.261Z,86.41
2023-01-29T03:19:53.236Z,86.20
2023-01-29T03:20:53.427Z,86.13
2023-01-29T03:21:53.337Z,86.20
2023-01-29T03:22:53.210Z,85.93
2023-01-29T03:23:53.326Z,85.72
2023-01-29T03:24:53.123Z,85.61
2023-01-29T03:25:53.123Z,85.72
2023-01-29T03:26:53.141Z,85.82
2023-01-29T03:27:53.093Z,85.93
2023-01-29T03:28:53.087Z,85.72
2023-01-29T03:29:53.080Z,85.72
2023-01-29T03:30:53.135Z,86.13
2023-01-29T03:31:53.099Z,86.35
2023-01-29T03:32:53.041Z,86.13
2023-01-29T03:33:53.776Z,85.82
2023-01-29T03:34:53.033Z,85.72
2023-01-29T03:35:53.019Z,85.72
2023-01-29T03:36:53.002Z,85.93
2023-01-29T03:37:53.021Z,86.03
2023-01-29T03:38:52.966Z,86.03
2023-01-29T03:39:52.973Z,86.24
2023-01-29T03:40:52.975Z,86.35
2023-01-29T03:41:53.026Z,86.24
2023-01-29T03:42:52.989Z,86.35
2023-01-29T03:43:52.940Z,86.55
2023-01-29T03:44:52.919Z,86.77
2023-01-29T03:45:52.944Z,86.98
2023-01-29T03:46:52.896Z,86.66
2023-01-29T03:47:53.038Z,86.03
2023-01-29T03:48:52.870Z,86.24
2023-01-29T03:49:53.030Z,85.82
2023-01-29T03:50:52.955Z,85.19
2023-01-29T03:51:52.945Z,85.40
2023-01-29T03:52:52.867Z,85.40
2023-01-29T03:53:52.855Z,85.36
2023-01-29T03:54:52.833Z,85.36
2023-01-29T03:55:52.802Z,85.57
2023-01-29T03:56:53.058Z,85.15
2023-01-29T03:57:52.810Z,84.73
2023-01-29T03:58:52.758Z,84.73
2023-01-29T03:59:52.800Z,84.84
2023-01-29T04:00:52.824Z,84.84
2023-01-29T04:01:52.750Z,84.73
2023-01-29T04:02:52.740Z,85.15
2023-01-29T04:03:52.743Z,84.84
2023-01-29T04:04:52.767Z,85.05
2023-01-29T04:05:52.749Z,85.05
2023-01-29T04:06:52.741Z,85.15
2023-01-29T04:07:52.680Z,84.63
2023-01-29T04:08:52.649Z,84.31
2023-01-29T04:09:52.680Z,84.63
2023-01-29T04:10:52.681Z,84.63
2023-01-29T04:11:52.648Z,84.63
2023-01-29T04:12:52.618Z,84.52
2023-01-29T04:13:52.613Z,84.10
2023-01-29T04:14:52.651Z,84.10
2023-01-29T04:15:52.603Z,84.31
2023-01-29T04:16:52.594Z,84.94
2023-01-29T04:17:52.582Z,84.52
2023-01-29T04:18:52.608Z,83.89
2023-01-29T04:19:52.574Z,83.89
2023-01-29T04:20:52.541Z,84.10
2023-01-29T04:21:52.536Z,84.42
2023-01-29T04:22:52.546Z,84.10
2023-01-29T04:23:52.520Z,84.52
2023-01-29T04:24:52.508Z,84.20
2023-01-29T04:25:52.608Z,84.52
2023-01-29T04:26:52.485Z,85.36
2023-01-29T04:27:52.463Z,85.57
2023-01-29T04:28:52.494Z,85.99
2023-01-29T04:29:52.577Z,85.89
2023-01-29T04:30:52.713Z,85.47
2023-01-29T04:31:52.546Z,85.15
2023-01-29T04:32:52.435Z,84.52
2023-01-29T04:33:52.449Z,84.42
2023-01-29T04:34:52.614Z,84.10
2023-01-29T04:35:52.411Z,84.42
2023-01-29T04:36:52.376Z,84.42
2023-01-29T04:37:52.543Z,84.20
2023-01-29T04:38:52.377Z,84.73
2023-01-29T04:39:52.361Z,84.52
2023-01-29T04:40:52.352Z,84.63
2023-01-29T04:41:52.322Z,84.31
2023-01-29T04:42:52.315Z,84.31
2023-01-29T04:43:52.297Z,84.84
2023-01-29T04:44:52.396Z,84.73
2023-01-29T04:45:52.351Z,84.52
2023-01-29T04:46:52.423Z,84.73
2023-01-29T04:47:52.374Z,84.73
2023-01-29T04:48:52.475Z,84.73
2023-01-29T04:49:52.278Z,84.84
2023-01-29T04:50:52.273Z,84.94
2023-01-29T04:51:52.225Z,84.94
2023-01-29T04:52:52.263Z,84.84
2023-01-29T04:53:52.221Z,84.84
2023-01-29T04:54:52.190Z,84.73
2023-01-29T04:55:52.192Z,84.52
2023-01-29T04:56:52.178Z,84.42
2023-01-29T04:57:52.180Z,84.63
2023-01-29T04:58:52.318Z,84.63
2023-01-29T04:59:52.143Z,84.52
2023-01-29T05:00:52.194Z,84.52
2023-01-29T05:01:52.154Z,84.63
2023-01-29T05:02:52.150Z,84.94
2023-01-29T05:03:52.227Z,84.77
2023-01-29T05:04:52.199Z,84.77
2023-01-29T05:05:52.072Z,84.56
2023-01-29T05:06:52.507Z,84.77
2023-01-29T05:07:52.058Z,84.25
2023-01-29T05:08:52.238Z,84.77
2023-01-29T05:09:52.079Z,84.98
2023-01-29T05:10:52.259Z,85.19
2023-01-29T05:11:52.031Z,84.88
2023-01-29T05:12:52.003Z,85.40
2023-01-29T05:13:52.006Z,85.50
2023-01-29T05:14:52.036Z,85.61
2023-01-29T05:15:52.170Z,86.03
2023-01-29T05:16:51.957Z,84.98
2023-01-29T05:17:51.985Z,85.40
2023-01-29T05:18:51.969Z,85.72
2023-01-29T05:19:51.951Z,85.72
2023-01-29T05:20:51.954Z,85.30
2023-01-29T05:21:51.909Z,85.72
2023-01-29T05:22:52.072Z,85.50
2023-01-29T05:23:51.909Z,85.72
2023-01-29T05:24:51.876Z,85.72
2023-01-29T05:25:52.101Z,85.82
2023-01-29T05:26:51.998Z,85.72
2023-01-29T05:27:51.996Z,85.93
2023-01-29T05:28:52.073Z,86.13
2023-01-29T05:29:51.833Z,86.03
2023-01-29T05:30:51.903Z,85.93
2023-01-29T05:31:52.075Z,85.72
2023-01-29T05:32:51.796Z,85.30
2023-01-29T05:33:51.802Z,85.19
2023-01-29T05:34:51.977Z,85.40
2023-01-29T05:35:51.937Z,85.40
2023-01-29T05:36:51.772Z,85.30
2023-01-29T05:37:52.033Z,85.08
2023-01-29T05:38:51.749Z,85.72
2023-01-29T05:39:51.871Z,85.82
2023-01-29T05:40:54.317Z,85.61
2023-01-29T05:41:52.018Z,85.82
2023-01-29T05:42:51.787Z,86.45
2023-01-29T05:43:51.675Z,87.08
2023-01-29T05:44:51.702Z,86.87
2023-01-29T05:45:51.697Z,86.45
2023-01-29T05:46:51.796Z,87.08
2023-01-29T05:47:51.650Z,87.08
2023-01-29T05:48:51.660Z,86.98
2023-01-29T05:49:51.636Z,87.08
2023-01-29T05:50:51.621Z,87.19
2023-01-29T05:51:51.629Z,86.66
2023-01-29T05:52:51.615Z,86.55
2023-01-29T05:53:51.678Z,86.66
2023-01-29T05:54:51.642Z,86.55
2023-01-29T05:55:51.583Z,86.35
2023-01-29T05:56:51.553Z,86.03
2023-01-29T05:57:51.576Z,86.55
2023-01-29T05:58:51.622Z,86.77
2023-01-29T05:59:51.606Z,86.55
2023-01-29T06:00:51.536Z,85.82
2023-01-29T06:01:51.494Z,85.89
2023-01-29T06:02:51.547Z,85.72
2023-01-29T06:03:51.471Z,85.40
2023-01-29T06:04:51.530Z,86.24
2023-01-29T06:05:51.544Z,86.30
2023-01-29T06:06:51.461Z,85.89
2023-01-29T06:07:51.500Z,86.55
2023-01-29T06:08:51.454Z,86.13
2023-01-29T06:09:51.396Z,85.61
2023-01-29T06:10:51.513Z,85.40
2023-01-29T06:11:51.424Z,85.08
2023-01-29T06:12:51.379Z,85.19
2023-01-29T06:13:51.362Z,85.50
2023-01-29T06:14:51.342Z,85.72
2023-01-29T06:15:51.460Z,86.13
2023-01-29T06:16:51.623Z,85.93
2023-01-29T06:17:51.371Z,86.03
2023-01-29T06:18:51.319Z,85.93
2023-01-29T06:19:51.345Z,85.93
2023-01-29T06:20:51.295Z,86.35
2023-01-29T06:21:51.292Z,86.35
2023-01-29T06:22:51.320Z,86.13
2023-01-29T06:23:51.274Z,86.35
2023-01-29T06:24:51.289Z,86.55
2023-01-29T06:25:51.247Z,86.45
2023-01-29T06:26:51.283Z,86.35
2023-01-29T06:27:51.235Z,86.13
2023-01-29T06:28:51.256Z,85.82
2023-01-29T06:29:51.282Z,86.10
2023-01-29T06:30:51.353Z,85.99
2023-01-29T06:31:51.313Z,86.24
2023-01-29T06:32:51.156Z,85.93
2023-01-29T06:33:51.179Z,86.03
2023-01-29T06:34:51.227Z,85.61
2023-01-29T06:35:51.153Z,85.50
2023-01-29T06:36:51.128Z,85.82
2023-01-29T06:37:51.224Z,85.72
2023-01-29T06:38:51.104Z,85.72
2023-01-29T06:39:51.195Z,85.72
2023-01-29T06:40:51.051Z,85.93
2023-01-29T06:41:51.159Z,86.35
2023-01-29T06:42:51.091Z,86.41
2023-01-29T06:43:51.069Z,85.89
2023-01-29T06:44:51.022Z,86.35
2023-01-29T06:45:51.166Z,86.35
2023-01-29T06:46:51.065Z,86.45
2023-01-29T06:47:50.974Z,86.45
2023-01-29T06:48:50.955Z,87.19
2023-01-29T06:49:50.930Z,87.60
2023-01-29T06:50:50.907Z,87.71
2023-01-29T06:51:50.965Z,88.45
2023-01-29T06:52:50.955Z,88.55
2023-01-29T06:53:50.946Z,89.60
2023-01-29T06:54:50.887Z,89.71
2023-01-29T06:55:50.877Z,90.02
2023-01-29T06:56:50.896Z,90.44
2023-01-29T06:57:50.874Z,90.76
2023-01-29T06:58:51.162Z,91.07
2023-01-29T06:59:50.897Z,91.60
2023-01-29T07:00:50.832Z,92.02
2023-01-29T07:01:50.819Z,92.54
2023-01-29T07:02:50.794Z,92.23
2023-01-29T07:03:50.985Z,92.33
2023-01-29T07:04:50.807Z,92.71
2023-01-29T07:05:50.771Z,92.61
2023-01-29T07:06:50.761Z,92.33
2023-01-29T07:07:50.743Z,92.65
2023-01-29T07:08:50.726Z,92.76
2023-01-29T07:09:50.734Z,92.96
2023-01-29T07:10:50.854Z,93.18
2023-01-29T07:11:50.786Z,93.91
2023-01-29T07:12:50.712Z,94.33
2023-01-29T07:13:50.690Z,94.12
2023-01-29T07:14:50.784Z,93.49
2023-01-29T07:15:50.767Z,93.28
2023-01-29T07:16:50.770Z,93.38
2023-01-29T07:17:50.661Z,93.85
2023-01-29T07:18:50.773Z,93.85
2023-01-29T07:19:50.627Z,94.01
2023-01-29T07:20:50.626Z,94.48
2023-01-29T07:21:50.681Z,94.48
2023-01-29T07:22:50.674Z,94.79
2023-01-29T07:23:50.642Z,94.85
2023-01-29T07:24:50.721Z,94.75
2023-01-29T07:25:50.570Z,94.75
2023-01-29T07:26:50.681Z,94.33
2023-01-29T07:27:50.581Z,93.91
2023-01-29T07:28:50.573Z,93.91
2023-01-29T07:29:50.549Z,93.80
2023-01-29T07:30:50.527Z,93.80
2023-01-29T07:31:50.601Z,93.38
2023-01-29T07:32:50.542Z,93.28
2023-01-29T07:33:50.479Z,93.49
2023-01-29T07:34:50.472Z,93.28
2023-01-29T07:35:50.571Z,93.28
2023-01-29T07:36:50.503Z,93.18
2023-01-29T07:37:50.583Z,92.76
2023-01-29T07:38:50.443Z,92.54
2023-01-29T07:39:50.492Z,92.44
2023-01-29T07:40:50.635Z,91.66
2023-01-29T07:41:50.406Z,91.45
2023-01-29T07:42:50.395Z,91.66
2023-01-29T07:43:50.463Z,91.45
2023-01-29T07:44:50.391Z,91.66
2023-01-29T07:45:50.463Z,91.03
2023-01-29T07:46:50.452Z,90.92
2023-01-29T07:47:50.788Z,90.92
2023-01-29T07:48:50.357Z,91.24
2023-01-29T07:49:51.750Z,90.51
2023-01-29T07:50:50.843Z,90.30
2023-01-29T07:51:50.351Z,90.72
2023-01-29T07:52:55.750Z,90.82
2023-01-29T07:53:50.871Z,90.82
2023-01-29T07:54:50.301Z,90.82
2023-01-29T07:55:50.480Z,91.03
2023-01-29T07:56:50.490Z,90.82
2023-01-29T07:57:50.417Z,90.92
2023-01-29T07:58:50.579Z,90.92
2023-01-29T07:59:55.272Z,90.72
2023-01-29T08:00:52.164Z,90.82
2023-01-29T08:01:50.423Z,91.35
2023-01-29T08:02:56.192Z,91.14
2023-01-29T08:03:51.501Z,90.40
2023-01-29T08:04:51.323Z,90.30
2023-01-29T08:05:50.229Z,89.87
2023-01-29T08:06:50.595Z,89.87
2023-01-29T08:08:05.326Z,89.98
2023-01-29T08:08:50.398Z,90.51
2023-01-29T08:09:51.881Z,90.25
2023-01-29T08:11:01.502Z,89.73
2023-01-29T08:11:50.129Z,90.05
2023-01-29T08:12:50.330Z,90.05
2023-01-29T08:13:52.088Z,90.57
2023-01-29T08:14:52.147Z,90.05
2023-01-29T08:15:50.697Z,89.42
2023-01-29T08:16:58.587Z,89.52
2023-01-29T08:17:57.805Z,89.62
2023-01-29T08:18:50.752Z,89.73
2023-01-29T08:19:50.075Z,89.62
2023-01-29T08:21:22.022Z,90.05
2023-01-29T08:21:50.727Z,89.00
2023-01-29T08:22:50.146Z,88.89
2023-01-29T08:23:49.991Z,89.10
2023-01-29T08:24:54.351Z,88.57
2023-01-29T08:25:51.011Z,88.57
2023-01-29T08:26:50.003Z,88.47
2023-01-29T08:27:49.969Z,88.89
2023-01-29T08:28:50.397Z,89.31
2023-01-29T08:29:49.932Z,89.73
2023-01-29T08:30:50.017Z,89.42
2023-01-29T08:31:49.900Z,88.79
2023-01-29T08:32:49.886Z,88.89
2023-01-29T08:33:49.955Z,88.26
2023-01-29T08:34:49.982Z,87.95
2023-01-29T08:35:49.960Z,87.63
2023-01-29T08:36:49.914Z,87.32
2023-01-29T08:37:49.869Z,87.32
2023-01-29T08:38:50.123Z,87.52
2023-01-29T08:39:49.954Z,87.32
2023-01-29T08:40:49.788Z,87.21
2023-01-29T08:41:49.760Z,87.42
2023-01-29T08:42:49.821Z,87.21
2023-01-29T08:43:49.758Z,87.74
2023-01-29T08:44:49.753Z,87.63
2023-01-29T08:45:49.819Z,87.63
2023-01-29T08:46:49.795Z,87.74
2023-01-29T08:47:49.703Z,87.95
2023-01-29T08:48:49.696Z,87.84
2023-01-29T08:49:49.682Z,87.63
2023-01-29T08:50:49.750Z,88.05
2023-01-29T08:51:49.825Z,87.52
2023-01-29T08:52:49.675Z,87.42
2023-01-29T08:53:50.696Z,87.42
2023-01-29T08:54:49.625Z,88.05
2023-01-29T08:55:49.607Z,88.16
2023-01-29T08:56:49.603Z,88.05
2023-01-29T08:57:49.616Z,88.16
2023-01-29T08:58:49.652Z,88.37
2023-01-29T08:59:49.574Z,88.37
2023-01-29T09:00:49.601Z,87.63
2023-01-29T09:01:49.577Z,87.63
2023-01-29T09:02:49.641Z,87.42
2023-01-29T09:03:49.576Z,88.05
2023-01-29T09:05:00.659Z,87.84
2023-01-29T09:05:49.681Z,87.63
2023-01-29T09:06:49.504Z,87.11
2023-01-29T09:07:49.480Z,87.21
2023-01-29T09:08:49.479Z,86.90
2023-01-29T09:09:49.465Z,86.69
2023-01-29T09:10:49.475Z,87.00
2023-01-29T09:12:23.600Z,87.11
2023-01-29T09:14:53.251Z,87.17
2023-01-29T09:15:54.338Z,86.96
2023-01-29T09:16:54.110Z,86.65
2023-01-29T09:17:54.095Z,86.96
2023-01-29T09:18:54.035Z,86.86
2023-01-29T09:19:54.061Z,86.51
2023-01-29T09:20:54.041Z,85.66
2023-01-29T09:21:54.018Z,85.88
2023-01-29T09:22:53.990Z,86.19
2023-01-29T09:23:54.015Z,86.19
2023-01-29T09:24:53.997Z,85.56
2023-01-29T09:25:54.004Z,86.08
2023-01-29T09:26:53.954Z,85.98
2023-01-29T09:27:53.959Z,86.29
2023-01-29T09:28:53.934Z,86.68
2023-01-29T09:29:53.952Z,85.42
2023-01-29T09:30:54.053Z,85.42
2023-01-29T09:31:54.074Z,85.31
2023-01-29T09:32:54.771Z,85.27
2023-01-29T09:33:53.954Z,83.70
2023-01-29T09:34:53.892Z,83.81
2023-01-29T09:35:53.878Z,84.22
2023-01-29T09:36:53.881Z,83.70
2023-01-29T09:37:53.839Z,84.05
2023-01-29T09:38:53.838Z,84.89
2023-01-29T09:39:53.823Z,85.00
2023-01-29T09:40:53.806Z,85.73
2023-01-29T09:41:53.839Z,85.94
2023-01-29T09:42:53.821Z,85.80
2023-01-29T09:43:53.782Z,84.47
2023-01-29T09:44:53.759Z,84.47
2023-01-29T09:45:53.772Z,85.52
2023-01-29T09:46:53.770Z,85.21
2023-01-29T09:47:53.729Z,84.58
2023-01-29T09:48:53.719Z,85.83
2023-01-29T09:49:53.751Z,86.36
2023-01-29T09:50:53.699Z,85.52
2023-01-29T09:51:53.700Z,85.83
2023-01-29T09:52:53.691Z,84.89
2023-01-29T09:53:53.707Z,85.31
2023-01-29T09:54:53.651Z,84.79
2023-01-29T09:55:53.644Z,84.47
2023-01-29T09:56:53.632Z,84.79
2023-01-29T09:57:53.630Z,85.21
2023-01-29T09:58:53.660Z,85.27
2023-01-29T09:59:53.628Z,85.27
2023-01-29T10:00:53.640Z,85.80
2023-01-29T10:01:53.655Z,85.69
2023-01-29T10:02:53.570Z,84.64
2023-01-29T10:03:53.603Z,83.59
2023-01-29T10:04:53.643Z,83.91
2023-01-29T10:05:53.539Z,84.44
2023-01-29T10:06:53.546Z,84.33
2023-01-29T10:07:53.536Z,84.96
2023-01-29T10:08:53.545Z,84.33
2023-01-29T10:09:53.575Z,84.44
2023-01-29T10:10:53.483Z,84.01
2023-01-29T10:11:53.483Z,84.22
2023-01-29T10:12:53.556Z,84.71
2023-01-29T10:13:53.453Z,83.98
2023-01-29T10:14:53.540Z,83.66
2023-01-29T10:15:53.469Z,83.77
2023-01-29T10:16:53.450Z,83.77
2023-01-29T10:17:53.451Z,84.08
2023-01-29T10:18:53.478Z,84.29
2023-01-29T10:19:53.524Z,83.87
2023-01-29T10:20:53.430Z,83.45
2023-01-29T10:21:53.418Z,83.77
2023-01-29T10:22:53.407Z,83.66
2023-01-29T10:23:53.359Z,83.77
2023-01-29T10:24:53.332Z,83.98
2023-01-29T10:25:53.363Z,84.29
2023-01-29T10:26:53.351Z,83.98
2023-01-29T10:27:53.315Z,83.66
2023-01-29T10:28:53.734Z,83.45
2023-01-29T10:29:53.293Z,83.98
2023-01-29T10:30:53.566Z,83.10
2023-01-29T10:31:53.423Z,83.10
2023-01-29T10:32:53.274Z,83.31
2023-01-29T10:34:08.804Z,82.68
2023-01-29T10:34:54.001Z,83.10
2023-01-29T10:35:55.316Z,82.06
2023-01-29T10:36:53.335Z,82.37
2023-01-29T10:37:53.226Z,81.95
2023-01-29T10:38:53.226Z,82.26
2023-01-29T10:39:53.208Z,83.42
2023-01-29T10:40:53.203Z,82.68
2023-01-29T10:41:54.063Z,83.00
2023-01-29T10:42:53.165Z,82.58
2023-01-29T10:43:53.152Z,83.42
2023-01-29T10:44:53.157Z,83.52
2023-01-29T10:45:53.155Z,82.16
2023-01-29T10:46:53.139Z,83.10
2023-01-29T10:47:53.202Z,82.47
2023-01-29T10:48:53.116Z,82.16
2023-01-29T10:49:53.090Z,82.79
2023-01-29T10:50:53.301Z,82.26
2023-01-29T10:51:53.065Z,82.93
2023-01-29T10:52:53.081Z,83.10
2023-01-29T10:53:53.036Z,83.21
2023-01-29T10:54:53.118Z,83.94
2023-01-29T10:55:53.005Z,84.15
2023-01-29T10:56:53.011Z,83.83
2023-01-29T10:57:54.976Z,83.38
2023-01-29T10:58:53.029Z,83.80
2023-01-29T10:59:52.996Z,83.69
2023-01-29T11:00:52.996Z,83.59
2023-01-29T11:01:53.056Z,83.06
2023-01-29T11:02:53.140Z,83.27
2023-01-29T11:03:52.962Z,82.75
2023-01-29T11:04:53.480Z,82.86
2023-01-29T11:05:52.915Z,82.65
2023-01-29T11:06:52.907Z,83.59
2023-01-29T11:07:52.902Z,84.00
2023-01-29T11:08:52.995Z,83.80
2023-01-29T11:09:52.861Z,83.48
2023-01-29T11:10:52.977Z,83.38
2023-01-29T11:11:52.853Z,82.96
2023-01-29T11:12:52.841Z,83.38
2023-01-29T11:13:52.826Z,83.80
2023-01-29T11:14:52.867Z,83.90
2023-01-29T11:15:52.828Z,83.90
2023-01-29T11:16:52.886Z,84.00
2023-01-29T11:17:52.849Z,82.33
2023-01-29T11:18:52.803Z,82.86
2023-01-29T11:19:52.820Z,83.48
2023-01-29T11:20:52.775Z,83.69
2023-01-29T11:21:52.776Z,83.69
2023-01-29T11:22:52.780Z,82.65
2023-01-29T11:23:52.725Z,82.86
2023-01-29T11:24:52.725Z,83.48
2023-01-29T11:25:52.715Z,83.27
2023-01-29T11:26:52.847Z,83.06
2023-01-29T11:27:52.692Z,83.48
2023-01-29T11:28:52.767Z,83.69
2023-01-29T11:29:52.724Z,84.53
2023-01-29T11:30:52.786Z,83.55
2023-01-29T11:31:52.840Z,82.65
2023-01-29T11:32:52.687Z,83.27
2023-01-29T11:33:52.636Z,82.75
2023-01-29T11:34:52.629Z,83.86
2023-01-29T11:35:52.804Z,83.34
2023-01-29T11:36:52.614Z,83.34
2023-01-29T11:37:52.571Z,82.92
2023-01-29T11:38:52.580Z,84.07
2023-01-29T11:39:52.661Z,83.44
2023-01-29T11:40:52.557Z,83.23
2023-01-29T11:41:52.534Z,83.44
2023-01-29T11:42:52.559Z,83.23
2023-01-29T11:43:52.515Z,83.55
2023-01-29T11:44:52.508Z,83.23
2023-01-29T11:45:52.489Z,83.55
2023-01-29T11:46:52.502Z,83.83
2023-01-29T11:47:52.469Z,83.40
2023-01-29T11:48:53.593Z,83.09
2023-01-29T11:49:52.487Z,83.20
2023-01-29T11:50:52.446Z,83.83
2023-01-29T11:51:52.440Z,84.03
2023-01-29T11:52:52.461Z,83.20
2023-01-29T11:53:52.403Z,83.09
2023-01-29T11:54:52.435Z,83.13
2023-01-29T11:55:52.383Z,83.34
2023-01-29T11:56:52.534Z,83.65
2023-01-29T11:57:52.381Z,84.17
2023-01-29T11:58:52.404Z,84.66
2023-01-29T11:59:52.382Z,84.34
2023-01-29T12:00:52.370Z,84.87
2023-01-29T12:01:52.333Z,84.14
2023-01-29T12:02:52.311Z,83.72
2023-01-29T12:03:52.437Z,84.59
2023-01-29T12:04:52.314Z,84.39
2023-01-29T12:05:52.447Z,84.17
2023-01-29T12:06:52.294Z,84.39
2023-01-29T12:07:52.359Z,84.07
2023-01-29T12:08:52.260Z,84.49
2023-01-29T12:09:52.251Z,84.28
2023-01-29T12:10:52.254Z,83.65
2023-01-29T12:11:52.203Z,83.86
2023-01-29T12:12:52.223Z,83.55
2023-01-29T12:13:52.193Z,83.76
2023-01-29T12:14:52.189Z,83.86
2023-01-29T12:15:54.535Z,84.07
2023-01-29T12:16:52.186Z,84.49
2023-01-29T12:17:52.174Z,84.49
2023-01-29T12:18:52.181Z,84.32
2023-01-29T12:19:52.168Z,84.84
2023-01-29T12:20:52.134Z,84.22
2023-01-29T12:21:52.122Z,84.32
2023-01-29T12:22:52.111Z,84.22
2023-01-29T12:23:52.133Z,83.90
2023-01-29T12:24:52.098Z,84.74
2023-01-29T12:25:52.076Z,84.74
2023-01-29T12:26:52.058Z,84.32
2023-01-29T12:27:52.057Z,85.05
2023-01-29T12:28:52.052Z,84.53
2023-01-29T12:29:52.035Z,84.63
2023-01-29T12:30:52.084Z,84.22
2023-01-29T12:31:52.050Z,84.42
2023-01-29T12:32:52.000Z,84.53
2023-01-29T12:33:52.018Z,84.00
2023-01-29T12:34:52.027Z,84.74
2023-01-29T12:35:51.996Z,84.74
2023-01-29T12:36:51.963Z,84.42
2023-01-29T12:37:51.968Z,84.95
2023-01-29T12:38:51.960Z,85.05
2023-01-29T12:39:51.934Z,84.32
2023-01-29T12:40:51.918Z,84.84
2023-01-29T12:41:51.945Z,84.32
2023-01-29T12:42:51.912Z,84.95
2023-01-29T12:43:51.914Z,84.95
2023-01-29T12:44:51.888Z,84.74
2023-01-29T12:45:51.859Z,84.63
2023-01-29T12:46:51.921Z,85.05
2023-01-29T12:47:51.838Z,85.05
2023-01-29T12:48:51.827Z,84.95
2023-01-29T12:49:51.822Z,85.68
2023-01-29T12:50:51.841Z,85.58
2023-01-29T12:51:51.814Z,85.16
2023-01-29T12:52:51.798Z,85.47
2023-01-29T12:53:51.778Z,85.68
2023-01-29T12:54:51.793Z,85.68
2023-01-29T12:55:51.778Z,85.16